sensor_id;sensor_type;location;lat;lon;timestamp;P1;durP1;ratioP1;P2;durP2;ratioP2
78410;SDS011;67706;51.074;-1.796;2024-02-15T00:01:48;2.67;;;1.63;;
78410;SDS011;67706;51.074;-1.796;2024-02-15T00:04:16;3.05;;;1.75;;
78410;SDS011;67706;51.074;-1.796;2024-02-15T00:06:44;3.78;;;1.88;;
78410;SDS011;67706;51.074;-1.796;2024-02-15T00:09:10;4.40;;;2.30;;
78410;SDS011;67706;51.074;-1.796;2024-02-15T00:11:37;4.10;;;2.55;;
78410;SDS011;67706;51.074;-1.796;2024-02-15T00:14:04;4.15;;;2.10;;
78410;SDS011;67706;51.074;-1.796;2024-02-15T00:16:32;3.85;;;2.17;;
78410;SDS011;67706;51.074;-1.796;2024-02-15T00:19:00;2.88;;;1.90;;
78410;SDS011;67706;51.074;-1.796;2024-02-15T00:21:28;5.85;;;2.05;;
78410;SDS011;67706;51.074;-1.796;2024-02-15T00:23:55;4.78;;;2.35;;
78410;SDS011;67706;51.074;-1.796;2024-02-15T00:26:22;5.60;;;2.10;;
78410;SDS011;67706;51.074;-1.796;2024-02-15T00:28:48;5.32;;;2.30;;
78410;SDS011;67706;51.074;-1.796;2024-02-15T00:31:15;4.25;;;2.00;;
78410;SDS011;67706;51.074;-1.796;2024-02-15T00:33:42;5.45;;;2.13;;
78410;SDS011;67706;51.074;-1.796;2024-02-15T00:36:09;4.20;;;2.22;;
78410;SDS011;67706;51.074;-1.796;2024-02-15T00:38:37;4.13;;;1.80;;
78410;SDS011;67706;51.074;-1.796;2024-02-15T00:41:04;5.05;;;2.40;;
78410;SDS011;67706;51.074;-1.796;2024-02-15T00:43:33;2.22;;;1.50;;
78410;SDS011;67706;51.074;-1.796;2024-02-15T00:46:00;2.67;;;1.42;;
78410;SDS011;67706;51.074;-1.796;2024-02-15T00:48:27;3.83;;;1.15;;
78410;SDS011;67706;51.074;-1.796;2024-02-15T00:50:54;2.95;;;1.00;;
78410;SDS011;67706;51.074;-1.796;2024-02-15T00:53:21;1.05;;;0.85;;
78410;SDS011;67706;51.074;-1.796;2024-02-15T00:55:49;3.45;;;0.52;;
78410;SDS011;67706;51.074;-1.796;2024-02-15T00:58:16;0.82;;;0.50;;
78410;SDS011;67706;51.074;-1.796;2024-02-15T01:00:43;1.17;;;0.60;;
78410;SDS011;67706;51.074;-1.796;2024-02-15T01:03:09;2.10;;;0.40;;
78410;SDS011;67706;51.074;-1.796;2024-02-15T01:05:36;2.60;;;0.40;;
78410;SDS011;67706;51.074;-1.796;2024-02-15T01:08:03;0.43;;;0.30;;
78410;SDS011;67706;51.074;-1.796;2024-02-15T01:10:30;1.48;;;0.63;;
78410;SDS011;67706;51.074;-1.796;2024-02-15T01:13:00;0.70;;;0.30;;
78410;SDS011;67706;51.074;-1.796;2024-02-15T01:15:27;0.80;;;0.40;;
78410;SDS011;67706;51.074;-1.796;2024-02-15T01:17:54;0.85;;;0.40;;
78410;SDS011;67706;51.074;-1.796;2024-02-15T01:20:21;0.95;;;0.30;;
78410;SDS011;67706;51.074;-1.796;2024-02-15T01:22:48;1.20;;;0.40;;
78410;SDS011;67706;51.074;-1.796;2024-02-15T01:25:15;0.13;;;0.10;;
78410;SDS011;67706;51.074;-1.796;2024-02-15T01:27:42;0.10;;;0.10;;
78410;SDS011;67706;51.074;-1.796;2024-02-15T01:30:11;0.82;;;0.17;;
78410;SDS011;67706;51.074;-1.796;2024-02-15T01:32:38;0.15;;;0.15;;
78410;SDS011;67706;51.074;-1.796;2024-02-15T01:35:07;0.60;;;0.28;;
78410;SDS011;67706;51.074;-1.796;2024-02-15T01:37:35;0.52;;;0.10;;
78410;SDS011;67706;51.074;-1.796;2024-02-15T01:40:02;0.20;;;0.20;;
78410;SDS011;67706;51.074;-1.796;2024-02-15T01:42:31;1.00;;;0.60;;
78410;SDS011;67706;51.074;-1.796;2024-02-15T01:44:58;1.00;;;0.47;;
78410;SDS011;67706;51.074;-1.796;2024-02-15T01:47:26;0.50;;;0.30;;
78410;SDS011;67706;51.074;-1.796;2024-02-15T01:49:54;0.80;;;0.40;;
78410;SDS011;67706;51.074;-1.796;2024-02-15T01:52:22;0.85;;;0.40;;
78410;SDS011;67706;51.074;-1.796;2024-02-15T01:54:48;0.65;;;0.40;;
78410;SDS011;67706;51.074;-1.796;2024-02-15T01:57:16;1.55;;;0.52;;
78410;SDS011;67706;51.074;-1.796;2024-02-15T01:59:44;0.68;;;0.47;;
78410;SDS011;67706;51.074;-1.796;2024-02-15T02:02:11;0.95;;;0.50;;
78410;SDS011;67706;51.074;-1.796;2024-02-15T02:04:41;1.33;;;0.80;;
78410;SDS011;67706;51.074;-1.796;2024-02-15T02:07:08;0.88;;;0.43;;
78410;SDS011;67706;51.074;-1.796;2024-02-15T02:09:36;0.80;;;0.50;;
78410;SDS011;67706;51.074;-1.796;2024-02-15T02:12:03;1.67;;;0.60;;
78410;SDS011;67706;51.074;-1.796;2024-02-15T02:14:30;1.10;;;0.63;;
78410;SDS011;67706;51.074;-1.796;2024-02-15T02:16:58;1.10;;;0.57;;
78410;SDS011;67706;51.074;-1.796;2024-02-15T02:19:37;1.60;;;0.80;;
78410;SDS011;67706;51.074;-1.796;2024-02-15T02:22:05;1.48;;;0.80;;
78410;SDS011;67706;51.074;-1.796;2024-02-15T02:24:35;1.17;;;0.65;;
78410;SDS011;67706;51.074;-1.796;2024-02-15T02:29:36;1.40;;;0.70;;
78410;SDS011;67706;51.074;-1.796;2024-02-15T02:32:10;1.23;;;0.50;;
78410;SDS011;67706;51.074;-1.796;2024-02-15T02:34:37;1.98;;;0.55;;
78410;SDS011;67706;51.074;-1.796;2024-02-15T02:37:05;1.27;;;0.40;;
78410;SDS011;67706;51.074;-1.796;2024-02-15T02:39:33;0.70;;;0.60;;
78410;SDS011;67706;51.074;-1.796;2024-02-15T02:41:59;1.15;;;0.55;;
78410;SDS011;67706;51.074;-1.796;2024-02-15T02:44:27;0.80;;;0.60;;
78410;SDS011;67706;51.074;-1.796;2024-02-15T02:46:53;0.77;;;0.50;;
78410;SDS011;67706;51.074;-1.796;2024-02-15T02:49:20;0.85;;;0.43;;
78410;SDS011;67706;51.074;-1.796;2024-02-15T02:51:46;1.70;;;0.40;;
78410;SDS011;67706;51.074;-1.796;2024-02-15T02:54:13;0.73;;;0.50;;
78410;SDS011;67706;51.074;-1.796;2024-02-15T02:56:40;3.05;;;0.80;;
78410;SDS011;67706;51.074;-1.796;2024-02-15T02:59:08;1.02;;;0.57;;
78410;SDS011;67706;51.074;-1.796;2024-02-15T03:01:37;0.90;;;0.50;;
78410;SDS011;67706;51.074;-1.796;2024-02-15T03:04:04;0.68;;;0.40;;
78410;SDS011;67706;51.074;-1.796;2024-02-15T03:06:31;0.93;;;0.40;;
78410;SDS011;67706;51.074;-1.796;2024-02-15T03:08:58;0.73;;;0.40;;
78410;SDS011;67706;51.074;-1.796;2024-02-15T03:11:24;0.93;;;0.55;;
78410;SDS011;67706;51.074;-1.796;2024-02-15T03:13:51;2.53;;;0.70;;
78410;SDS011;67706;51.074;-1.796;2024-02-15T03:16:21;1.27;;;0.80;;
78410;SDS011;67706;51.074;-1.796;2024-02-15T03:18:51;2.03;;;0.70;;
78410;SDS011;67706;51.074;-1.796;2024-02-15T03:21:17;1.00;;;0.50;;
78410;SDS011;67706;51.074;-1.796;2024-02-15T03:23:45;0.63;;;0.52;;
78410;SDS011;67706;51.074;-1.796;2024-02-15T03:26:12;2.03;;;0.50;;
78410;SDS011;67706;51.074;-1.796;2024-02-15T03:28:39;2.15;;;0.60;;
78410;SDS011;67706;51.074;-1.796;2024-02-15T03:31:05;2.40;;;0.73;;
78410;SDS011;67706;51.074;-1.796;2024-02-15T03:33:34;2.00;;;0.60;;
78410;SDS011;67706;51.074;-1.796;2024-02-15T03:36:04;1.98;;;0.90;;
78410;SDS011;67706;51.074;-1.796;2024-02-15T03:38:31;2.67;;;0.60;;
78410;SDS011;67706;51.074;-1.796;2024-02-15T03:40:57;6.53;;;1.15;;
78410;SDS011;67706;51.074;-1.796;2024-02-15T03:43:24;1.00;;;0.40;;
78410;SDS011;67706;51.074;-1.796;2024-02-15T03:45:51;1.40;;;0.60;;
78410;SDS011;67706;51.074;-1.796;2024-02-15T03:48:18;1.60;;;0.77;;
78410;SDS011;67706;51.074;-1.796;2024-02-15T03:50:45;3.05;;;0.95;;
78410;SDS011;67706;51.074;-1.796;2024-02-15T03:53:14;3.22;;;1.15;;
78410;SDS011;67706;51.074;-1.796;2024-02-15T03:55:41;3.22;;;1.25;;
78410;SDS011;67706;51.074;-1.796;2024-02-15T03:58:08;4.78;;;1.20;;
78410;SDS011;67706;51.074;-1.796;2024-02-15T04:00:35;5.50;;;1.23;;
78410;SDS011;67706;51.074;-1.796;2024-02-15T04:03:02;4.90;;;1.38;;
78410;SDS011;67706;51.074;-1.796;2024-02-15T04:05:30;4.90;;;1.27;;
78410;SDS011;67706;51.074;-1.796;2024-02-15T04:07:57;3.97;;;1.80;;
78410;SDS011;67706;51.074;-1.796;2024-02-15T04:10:28;4.57;;;1.63;;
78410;SDS011;67706;51.074;-1.796;2024-02-15T04:12:55;9.57;;;2.17;;
78410;SDS011;67706;51.074;-1.796;2024-02-15T04:15:23;4.72;;;2.03;;
78410;SDS011;67706;51.074;-1.796;2024-02-15T04:17:48;10.02;;;2.30;;
78410;SDS011;67706;51.074;-1.796;2024-02-15T04:20:20;3.00;;;1.25;;
78410;SDS011;67706;51.074;-1.796;2024-02-15T04:22:47;6.45;;;2.25;;
78410;SDS011;67706;51.074;-1.796;2024-02-15T04:25:15;8.13;;;2.30;;
78410;SDS011;67706;51.074;-1.796;2024-02-15T04:27:43;7.30;;;2.10;;
78410;SDS011;67706;51.074;-1.796;2024-02-15T04:30:11;6.05;;;1.70;;
78410;SDS011;67706;51.074;-1.796;2024-02-15T04:32:38;5.43;;;1.52;;
78410;SDS011;67706;51.074;-1.796;2024-02-15T04:35:05;8.18;;;2.33;;
78410;SDS011;67706;51.074;-1.796;2024-02-15T04:37:32;7.03;;;2.00;;
78410;SDS011;67706;51.074;-1.796;2024-02-15T04:39:59;6.95;;;2.10;;
78410;SDS011;67706;51.074;-1.796;2024-02-15T04:42:33;5.90;;;1.80;;
78410;SDS011;67706;51.074;-1.796;2024-02-15T04:45:02;6.38;;;1.95;;
78410;SDS011;67706;51.074;-1.796;2024-02-15T04:47:30;4.43;;;2.10;;
78410;SDS011;67706;51.074;-1.796;2024-02-15T04:49:57;5.45;;;2.10;;
78410;SDS011;67706;51.074;-1.796;2024-02-15T04:52:23;5.55;;;1.95;;
78410;SDS011;67706;51.074;-1.796;2024-02-15T04:54:50;9.30;;;2.47;;
78410;SDS011;67706;51.074;-1.796;2024-02-15T04:57:19;5.57;;;2.00;;
78410;SDS011;67706;51.074;-1.796;2024-02-15T04:59:45;6.93;;;2.33;;
78410;SDS011;67706;51.074;-1.796;2024-02-15T05:02:15;10.63;;;2.88;;
78410;SDS011;67706;51.074;-1.796;2024-02-15T05:04:42;7.50;;;2.72;;
78410;SDS011;67706;51.074;-1.796;2024-02-15T05:07:09;5.07;;;2.42;;
78410;SDS011;67706;51.074;-1.796;2024-02-15T05:09:36;7.32;;;2.50;;
78410;SDS011;67706;51.074;-1.796;2024-02-15T05:12:03;7.78;;;2.58;;
78410;SDS011;67706;51.074;-1.796;2024-02-15T05:14:30;12.18;;;3.05;;
78410;SDS011;67706;51.074;-1.796;2024-02-15T05:16:57;7.38;;;2.33;;
78410;SDS011;67706;51.074;-1.796;2024-02-15T05:19:25;4.95;;;2.63;;
78410;SDS011;67706;51.074;-1.796;2024-02-15T05:21:55;11.20;;;2.70;;
78410;SDS011;67706;51.074;-1.796;2024-02-15T05:24:22;7.53;;;2.85;;
78410;SDS011;67706;51.074;-1.796;2024-02-15T05:26:48;6.95;;;2.90;;
78410;SDS011;67706;51.074;-1.796;2024-02-15T05:29:15;7.50;;;2.67;;
78410;SDS011;67706;51.074;-1.796;2024-02-15T05:31:42;7.18;;;3.20;;
78410;SDS011;67706;51.074;-1.796;2024-02-15T05:34:10;9.18;;;3.40;;
78410;SDS011;67706;51.074;-1.796;2024-02-15T05:36:39;12.60;;;3.78;;
78410;SDS011;67706;51.074;-1.796;2024-02-15T05:39:06;7.70;;;3.05;;
78410;SDS011;67706;51.074;-1.796;2024-02-15T05:41:33;7.35;;;2.95;;
78410;SDS011;67706;51.074;-1.796;2024-02-15T05:44:00;11.50;;;3.70;;
78410;SDS011;67706;51.074;-1.796;2024-02-15T05:46:29;7.88;;;3.67;;
78410;SDS011;67706;51.074;-1.796;2024-02-15T05:48:56;11.15;;;3.75;;
78410;SDS011;67706;51.074;-1.796;2024-02-15T05:51:23;13.55;;;3.55;;
78410;SDS011;67706;51.074;-1.796;2024-02-15T05:53:51;12.27;;;3.30;;
78410;SDS011;67706;51.074;-1.796;2024-02-15T05:56:23;9.93;;;3.45;;
78410;SDS011;67706;51.074;-1.796;2024-02-15T05:58:51;10.50;;;3.90;;
78410;SDS011;67706;51.074;-1.796;2024-02-15T06:01:17;9.95;;;3.15;;
78410;SDS011;67706;51.074;-1.796;2024-02-15T06:03:44;10.68;;;3.67;;
78410;SDS011;67706;51.074;-1.796;2024-02-15T06:06:13;10.68;;;3.58;;
78410;SDS011;67706;51.074;-1.796;2024-02-15T06:08:39;13.50;;;4.22;;
78410;SDS011;67706;51.074;-1.796;2024-02-15T06:11:07;13.60;;;3.80;;
78410;SDS011;67706;51.074;-1.796;2024-02-15T06:13:35;12.80;;;3.10;;
78410;SDS011;67706;51.074;-1.796;2024-02-15T06:16:02;11.77;;;3.63;;
78410;SDS011;67706;51.074;-1.796;2024-02-15T06:18:34;13.80;;;4.35;;
78410;SDS011;67706;51.074;-1.796;2024-02-15T06:21:01;10.18;;;3.80;;
78410;SDS011;67706;51.074;-1.796;2024-02-15T06:23:27;12.82;;;3.60;;
78410;SDS011;67706;51.074;-1.796;2024-02-15T06:25:55;9.95;;;3.20;;
78410;SDS011;67706;51.074;-1.796;2024-02-15T06:28:24;12.38;;;3.38;;
78410;SDS011;67706;51.074;-1.796;2024-02-15T06:31:09;8.77;;;2.75;;
78410;SDS011;67706;51.074;-1.796;2024-02-15T06:33:53;10.95;;;2.88;;
78410;SDS011;67706;51.074;-1.796;2024-02-15T06:36:39;9.30;;;2.70;;
78410;SDS011;67706;51.074;-1.796;2024-02-15T06:39:23;10.20;;;2.72;;
78410;SDS011;67706;51.074;-1.796;2024-02-15T06:42:07;7.85;;;2.40;;
78410;SDS011;67706;51.074;-1.796;2024-02-15T06:44:35;10.77;;;2.80;;
78410;SDS011;67706;51.074;-1.796;2024-02-15T06:47:02;9.48;;;2.72;;
78410;SDS011;67706;51.074;-1.796;2024-02-15T06:49:29;8.02;;;2.60;;
78410;SDS011;67706;51.074;-1.796;2024-02-15T06:51:55;6.97;;;2.65;;
78410;SDS011;67706;51.074;-1.796;2024-02-15T06:54:24;12.55;;;2.47;;
78410;SDS011;67706;51.074;-1.796;2024-02-15T06:56:50;10.95;;;2.72;;
78410;SDS011;67706;51.074;-1.796;2024-02-15T06:59:19;14.85;;;3.00;;
78410;SDS011;67706;51.074;-1.796;2024-02-15T07:01:48;6.63;;;2.67;;
78410;SDS011;67706;51.074;-1.796;2024-02-15T07:04:17;7.63;;;2.55;;
78410;SDS011;67706;51.074;-1.796;2024-02-15T07:06:44;7.00;;;2.33;;
78410;SDS011;67706;51.074;-1.796;2024-02-15T07:09:13;9.27;;;2.72;;
78410;SDS011;67706;51.074;-1.796;2024-02-15T07:11:41;8.73;;;2.40;;
78410;SDS011;67706;51.074;-1.796;2024-02-15T07:14:09;11.77;;;2.92;;
78410;SDS011;67706;51.074;-1.796;2024-02-15T07:16:35;11.80;;;2.42;;
78410;SDS011;67706;51.074;-1.796;2024-02-15T07:19:03;7.72;;;2.47;;
78410;SDS011;67706;51.074;-1.796;2024-02-15T07:21:30;9.45;;;2.88;;
78410;SDS011;67706;51.074;-1.796;2024-02-15T07:23:57;12.73;;;3.70;;
78410;SDS011;67706;51.074;-1.796;2024-02-15T07:26:24;7.68;;;2.60;;
78410;SDS011;67706;51.074;-1.796;2024-02-15T07:28:51;14.43;;;3.00;;
78410;SDS011;67706;51.074;-1.796;2024-02-15T07:31:19;10.63;;;2.47;;
78410;SDS011;67706;51.074;-1.796;2024-02-15T07:33:46;13.68;;;2.80;;
78410;SDS011;67706;51.074;-1.796;2024-02-15T07:36:15;7.40;;;3.03;;
78410;SDS011;67706;51.074;-1.796;2024-02-15T07:38:44;5.68;;;2.45;;
78410;SDS011;67706;51.074;-1.796;2024-02-15T07:41:13;10.30;;;3.10;;
78410;SDS011;67706;51.074;-1.796;2024-02-15T07:43:40;6.80;;;2.47;;
78410;SDS011;67706;51.074;-1.796;2024-02-15T07:46:07;7.70;;;2.78;;
78410;SDS011;67706;51.074;-1.796;2024-02-15T07:48:38;12.27;;;2.67;;
78410;SDS011;67706;51.074;-1.796;2024-02-15T07:51:10;4.57;;;2.47;;
78410;SDS011;67706;51.074;-1.796;2024-02-15T07:53:38;9.00;;;5.15;;
78410;SDS011;67706;51.074;-1.796;2024-02-15T07:56:07;10.20;;;2.78;;
78410;SDS011;67706;51.074;-1.796;2024-02-15T07:58:37;10.32;;;2.28;;
78410;SDS011;67706;51.074;-1.796;2024-02-15T08:01:06;10.30;;;2.47;;
78410;SDS011;67706;51.074;-1.796;2024-02-15T08:03:33;7.75;;;2.67;;
78410;SDS011;67706;51.074;-1.796;2024-02-15T08:06:00;8.75;;;3.22;;
78410;SDS011;67706;51.074;-1.796;2024-02-15T08:08:27;9.38;;;2.13;;
78410;SDS011;67706;51.074;-1.796;2024-02-15T08:10:55;6.25;;;2.38;;
78410;SDS011;67706;51.074;-1.796;2024-02-15T08:13:21;9.00;;;2.97;;
78410;SDS011;67706;51.074;-1.796;2024-02-15T08:15:53;9.95;;;2.60;;
78410;SDS011;67706;51.074;-1.796;2024-02-15T08:18:20;6.55;;;2.00;;
78410;SDS011;67706;51.074;-1.796;2024-02-15T08:20:46;3.45;;;1.77;;
78410;SDS011;67706;51.074;-1.796;2024-02-15T08:23:13;8.05;;;2.35;;
78410;SDS011;67706;51.074;-1.796;2024-02-15T08:25:39;7.18;;;2.50;;
78410;SDS011;67706;51.074;-1.796;2024-02-15T08:28:08;8.30;;;2.25;;
78410;SDS011;67706;51.074;-1.796;2024-02-15T08:30:36;4.88;;;2.00;;
78410;SDS011;67706;51.074;-1.796;2024-02-15T08:33:03;5.47;;;2.47;;
78410;SDS011;67706;51.074;-1.796;2024-02-15T08:35:30;6.72;;;2.85;;
78410;SDS011;67706;51.074;-1.796;2024-02-15T08:37:57;7.75;;;2.63;;
78410;SDS011;67706;51.074;-1.796;2024-02-15T08:40:24;6.45;;;2.25;;
78410;SDS011;67706;51.074;-1.796;2024-02-15T08:42:51;9.70;;;2.38;;
78410;SDS011;67706;51.074;-1.796;2024-02-15T08:45:19;6.95;;;2.60;;
78410;SDS011;67706;51.074;-1.796;2024-02-15T08:47:45;5.13;;;2.10;;
78410;SDS011;67706;51.074;-1.796;2024-02-15T08:50:14;5.95;;;2.42;;
78410;SDS011;67706;51.074;-1.796;2024-02-15T08:52:42;10.15;;;2.58;;
78410;SDS011;67706;51.074;-1.796;2024-02-15T08:55:09;18.25;;;7.25;;
78410;SDS011;67706;51.074;-1.796;2024-02-15T08:57:39;5.03;;;3.78;;
78410;SDS011;67706;51.074;-1.796;2024-02-15T09:00:07;6.65;;;2.30;;
78410;SDS011;67706;51.074;-1.796;2024-02-15T09:02:39;5.88;;;2.35;;
78410;SDS011;67706;51.074;-1.796;2024-02-15T09:05:06;4.85;;;1.73;;
78410;SDS011;67706;51.074;-1.796;2024-02-15T09:07:33;4.45;;;1.95;;
78410;SDS011;67706;51.074;-1.796;2024-02-15T09:10:01;5.40;;;2.05;;
78410;SDS011;67706;51.074;-1.796;2024-02-15T09:12:28;5.72;;;1.88;;
78410;SDS011;67706;51.074;-1.796;2024-02-15T09:14:56;5.45;;;1.65;;
78410;SDS011;67706;51.074;-1.796;2024-02-15T09:17:23;4.18;;;1.80;;
78410;SDS011;67706;51.074;-1.796;2024-02-15T09:19:52;4.53;;;2.55;;
78410;SDS011;67706;51.074;-1.796;2024-02-15T09:22:20;5.28;;;2.55;;
78410;SDS011;67706;51.074;-1.796;2024-02-15T09:24:50;6.20;;;1.90;;
78410;SDS011;67706;51.074;-1.796;2024-02-15T09:27:19;7.57;;;1.88;;
78410;SDS011;67706;51.074;-1.796;2024-02-15T09:29:48;4.80;;;1.67;;
78410;SDS011;67706;51.074;-1.796;2024-02-15T09:32:17;4.22;;;1.63;;
78410;SDS011;67706;51.074;-1.796;2024-02-15T09:34:45;4.88;;;1.55;;
78410;SDS011;67706;51.074;-1.796;2024-02-15T09:37:13;8.02;;;2.00;;
78410;SDS011;67706;51.074;-1.796;2024-02-15T09:39:40;4.78;;;2.00;;
78410;SDS011;67706;51.074;-1.796;2024-02-15T09:42:07;4.90;;;1.85;;
78410;SDS011;67706;51.074;-1.796;2024-02-15T09:44:34;6.80;;;2.08;;
78410;SDS011;67706;51.074;-1.796;2024-02-15T09:47:02;4.10;;;1.67;;
78410;SDS011;67706;51.074;-1.796;2024-02-15T09:49:33;6.25;;;1.60;;
78410;SDS011;67706;51.074;-1.796;2024-02-15T09:52:04;8.70;;;2.70;;
78410;SDS011;67706;51.074;-1.796;2024-02-15T09:54:37;2.47;;;1.20;;
78410;SDS011;67706;51.074;-1.796;2024-02-15T09:57:05;3.72;;;1.60;;
78410;SDS011;67706;51.074;-1.796;2024-02-15T09:59:33;5.30;;;1.60;;
78410;SDS011;67706;51.074;-1.796;2024-02-15T10:02:01;3.70;;;1.50;;
78410;SDS011;67706;51.074;-1.796;2024-02-15T10:04:28;3.47;;;1.42;;
78410;SDS011;67706;51.074;-1.796;2024-02-15T10:06:55;2.60;;;1.48;;
78410;SDS011;67706;51.074;-1.796;2024-02-15T10:09:28;3.72;;;1.38;;
78410;SDS011;67706;51.074;-1.796;2024-02-15T10:11:57;2.40;;;1.30;;
78410;SDS011;67706;51.074;-1.796;2024-02-15T10:14:25;4.20;;;1.77;;
78410;SDS011;67706;51.074;-1.796;2024-02-15T10:16:52;3.88;;;1.60;;
78410;SDS011;67706;51.074;-1.796;2024-02-15T10:19:20;5.90;;;1.55;;
78410;SDS011;67706;51.074;-1.796;2024-02-15T10:21:50;4.60;;;1.80;;
78410;SDS011;67706;51.074;-1.796;2024-02-15T10:24:20;4.88;;;2.22;;
78410;SDS011;67706;51.074;-1.796;2024-02-15T10:26:48;2.80;;;1.83;;
78410;SDS011;67706;51.074;-1.796;2024-02-15T10:29:16;4.20;;;1.40;;
78410;SDS011;67706;51.074;-1.796;2024-02-15T10:31:52;5.82;;;1.80;;
78410;SDS011;67706;51.074;-1.796;2024-02-15T10:34:19;4.55;;;1.70;;
78410;SDS011;67706;51.074;-1.796;2024-02-15T10:36:46;3.67;;;1.60;;
78410;SDS011;67706;51.074;-1.796;2024-02-15T10:39:13;2.90;;;1.55;;
78410;SDS011;67706;51.074;-1.796;2024-02-15T10:41:44;2.60;;;1.67;;
78410;SDS011;67706;51.074;-1.796;2024-02-15T10:44:17;3.90;;;1.63;;
78410;SDS011;67706;51.074;-1.796;2024-02-15T10:46:48;3.63;;;1.58;;
78410;SDS011;67706;51.074;-1.796;2024-02-15T10:49:18;4.15;;;1.83;;
78410;SDS011;67706;51.074;-1.796;2024-02-15T10:51:45;3.97;;;1.70;;
78410;SDS011;67706;51.074;-1.796;2024-02-15T10:54:19;2.58;;;1.70;;
78410;SDS011;67706;51.074;-1.796;2024-02-15T10:56:58;4.90;;;1.80;;
78410;SDS011;67706;51.074;-1.796;2024-02-15T10:59:31;4.32;;;1.80;;
78410;SDS011;67706;51.074;-1.796;2024-02-15T11:02:01;6.47;;;2.00;;
78410;SDS011;67706;51.074;-1.796;2024-02-15T11:04:35;4.18;;;1.67;;
78410;SDS011;67706;51.074;-1.796;2024-02-15T11:07:01;4.60;;;1.80;;
78410;SDS011;67706;51.074;-1.796;2024-02-15T11:09:31;4.32;;;1.80;;
78410;SDS011;67706;51.074;-1.796;2024-02-15T11:11:58;7.00;;;2.15;;
78410;SDS011;67706;51.074;-1.796;2024-02-15T11:14:26;5.03;;;1.60;;
78410;SDS011;67706;51.074;-1.796;2024-02-15T11:16:55;4.53;;;1.48;;
78410;SDS011;67706;51.074;-1.796;2024-02-15T11:19:41;3.22;;;1.67;;
78410;SDS011;67706;51.074;-1.796;2024-02-15T11:22:12;2.95;;;1.85;;
78410;SDS011;67706;51.074;-1.796;2024-02-15T11:24:46;7.05;;;2.13;;
78410;SDS011;67706;51.074;-1.796;2024-02-15T11:27:23;4.43;;;1.92;;
78410;SDS011;67706;51.074;-1.796;2024-02-15T11:29:52;4.20;;;1.85;;
78410;SDS011;67706;51.074;-1.796;2024-02-15T11:32:41;3.72;;;1.70;;
78410;SDS011;67706;51.074;-1.796;2024-02-15T11:35:12;6.55;;;2.17;;
78410;SDS011;67706;51.074;-1.796;2024-02-15T11:37:49;3.47;;;2.13;;
78410;SDS011;67706;51.074;-1.796;2024-02-15T11:40:19;4.53;;;1.70;;
78410;SDS011;67706;51.074;-1.796;2024-02-15T11:42:48;4.05;;;1.83;;
78410;SDS011;67706;51.074;-1.796;2024-02-15T11:45:16;4.45;;;1.63;;
78410;SDS011;67706;51.074;-1.796;2024-02-15T11:47:46;4.55;;;1.58;;
78410;SDS011;67706;51.074;-1.796;2024-02-15T11:50:15;6.78;;;1.85;;
78410;SDS011;67706;51.074;-1.796;2024-02-15T11:52:42;3.70;;;1.55;;
78410;SDS011;67706;51.074;-1.796;2024-02-15T11:55:11;5.20;;;1.67;;
78410;SDS011;67706;51.074;-1.796;2024-02-15T11:57:38;2.60;;;1.45;;
78410;SDS011;67706;51.074;-1.796;2024-02-15T12:00:20;5.50;;;1.75;;
78410;SDS011;67706;51.074;-1.796;2024-02-15T12:03:06;3.80;;;1.55;;
78410;SDS011;67706;51.074;-1.796;2024-02-15T12:05:51;6.88;;;1.77;;
78410;SDS011;67706;51.074;-1.796;2024-02-15T12:08:35;3.85;;;1.63;;
78410;SDS011;67706;51.074;-1.796;2024-02-15T12:11:20;3.28;;;1.30;;
78410;SDS011;67706;51.074;-1.796;2024-02-15T12:14:04;4.20;;;1.30;;
78410;SDS011;67706;51.074;-1.796;2024-02-15T12:16:47;8.05;;;1.80;;
78410;SDS011;67706;51.074;-1.796;2024-02-15T12:19:44;3.47;;;1.50;;
78410;SDS011;67706;51.074;-1.796;2024-02-15T12:22:10;4.47;;;1.55;;
78410;SDS011;67706;51.074;-1.796;2024-02-15T12:24:37;7.78;;;1.60;;
78410;SDS011;67706;51.074;-1.796;2024-02-15T12:27:04;4.55;;;1.45;;
78410;SDS011;67706;51.074;-1.796;2024-02-15T12:29:31;3.30;;;1.50;;
78410;SDS011;67706;51.074;-1.796;2024-02-15T12:32:00;4.85;;;1.58;;
78410;SDS011;67706;51.074;-1.796;2024-02-15T12:34:28;1.65;;;1.00;;
78410;SDS011;67706;51.074;-1.796;2024-02-15T12:37:05;3.92;;;1.60;;
78410;SDS011;67706;51.074;-1.796;2024-02-15T12:39:34;10.02;;;1.90;;
78410;SDS011;67706;51.074;-1.796;2024-02-15T12:42:02;8.77;;;1.70;;
78410;SDS011;67706;51.074;-1.796;2024-02-15T12:44:29;3.88;;;1.60;;
78410;SDS011;67706;51.074;-1.796;2024-02-15T12:46:57;3.83;;;1.60;;
78410;SDS011;67706;51.074;-1.796;2024-02-15T12:49:29;5.03;;;1.50;;
78410;SDS011;67706;51.074;-1.796;2024-02-15T12:55:12;5.70;;;1.42;;
78410;SDS011;67706;51.074;-1.796;2024-02-15T12:57:40;4.97;;;1.80;;
78410;SDS011;67706;51.074;-1.796;2024-02-15T13:00:10;3.55;;;1.80;;
78410;SDS011;67706;51.074;-1.796;2024-02-15T13:02:39;2.42;;;1.42;;
78410;SDS011;67706;51.074;-1.796;2024-02-15T13:05:07;4.15;;;1.77;;
78410;SDS011;67706;51.074;-1.796;2024-02-15T13:07:35;5.22;;;1.75;;
78410;SDS011;67706;51.074;-1.796;2024-02-15T13:10:02;3.45;;;1.60;;
78410;SDS011;67706;51.074;-1.796;2024-02-15T13:12:33;5.07;;;1.95;;
78410;SDS011;67706;51.074;-1.796;2024-02-15T13:15:01;6.68;;;1.45;;
78410;SDS011;67706;51.074;-1.796;2024-02-15T13:17:30;4.55;;;1.65;;
78410;SDS011;67706;51.074;-1.796;2024-02-15T13:19:58;3.40;;;1.67;;
78410;SDS011;67706;51.074;-1.796;2024-02-15T13:22:29;3.42;;;1.73;;
78410;SDS011;67706;51.074;-1.796;2024-02-15T13:24:57;5.10;;;2.10;;
78410;SDS011;67706;51.074;-1.796;2024-02-15T13:27:24;3.25;;;1.35;;
78410;SDS011;67706;51.074;-1.796;2024-02-15T13:29:52;5.88;;;1.75;;
78410;SDS011;67706;51.074;-1.796;2024-02-15T13:32:20;4.50;;;1.88;;
78410;SDS011;67706;51.074;-1.796;2024-02-15T13:34:47;5.90;;;1.60;;
78410;SDS011;67706;51.074;-1.796;2024-02-15T13:37:17;9.93;;;2.42;;
78410;SDS011;67706;51.074;-1.796;2024-02-15T13:39:45;4.20;;;1.60;;
78410;SDS011;67706;51.074;-1.796;2024-02-15T13:42:13;7.05;;;1.90;;
78410;SDS011;67706;51.074;-1.796;2024-02-15T13:44:39;3.97;;;1.98;;
78410;SDS011;67706;51.074;-1.796;2024-02-15T13:47:07;5.72;;;2.25;;
78410;SDS011;67706;51.074;-1.796;2024-02-15T13:49:34;3.67;;;2.10;;
78410;SDS011;67706;51.074;-1.796;2024-02-15T13:52:01;8.52;;;2.15;;
78410;SDS011;67706;51.074;-1.796;2024-02-15T13:54:28;4.35;;;2.20;;
78410;SDS011;67706;51.074;-1.796;2024-02-15T13:56:55;4.60;;;2.10;;
78410;SDS011;67706;51.074;-1.796;2024-02-15T13:59:22;8.45;;;1.95;;
78410;SDS011;67706;51.074;-1.796;2024-02-15T14:01:49;5.28;;;1.75;;
78410;SDS011;67706;51.074;-1.796;2024-02-15T14:04:17;4.88;;;1.60;;
78410;SDS011;67706;51.074;-1.796;2024-02-15T14:06:44;5.97;;;2.20;;
78410;SDS011;67706;51.074;-1.796;2024-02-15T14:09:10;5.88;;;1.60;;
78410;SDS011;67706;51.074;-1.796;2024-02-15T14:11:37;7.55;;;1.65;;
78410;SDS011;67706;51.074;-1.796;2024-02-15T14:14:05;5.30;;;1.92;;
78410;SDS011;67706;51.074;-1.796;2024-02-15T14:16:31;4.03;;;1.67;;
78410;SDS011;67706;51.074;-1.796;2024-02-15T14:18:59;4.53;;;1.85;;
78410;SDS011;67706;51.074;-1.796;2024-02-15T14:21:30;6.03;;;2.13;;
78410;SDS011;67706;51.074;-1.796;2024-02-15T14:23:59;8.93;;;2.13;;
78410;SDS011;67706;51.074;-1.796;2024-02-15T14:26:30;5.70;;;1.70;;
78410;SDS011;67706;51.074;-1.796;2024-02-15T14:28:57;4.85;;;1.58;;
78410;SDS011;67706;51.074;-1.796;2024-02-15T14:31:26;6.88;;;1.90;;
78410;SDS011;67706;51.074;-1.796;2024-02-15T14:34:10;3.65;;;1.60;;
78410;SDS011;67706;51.074;-1.796;2024-02-15T14:36:38;4.47;;;1.70;;
78410;SDS011;67706;51.074;-1.796;2024-02-15T14:39:05;5.10;;;1.85;;
78410;SDS011;67706;51.074;-1.796;2024-02-15T14:41:34;4.78;;;1.60;;
78410;SDS011;67706;51.074;-1.796;2024-02-15T14:44:00;2.95;;;1.50;;
78410;SDS011;67706;51.074;-1.796;2024-02-15T14:46:27;5.00;;;2.00;;
78410;SDS011;67706;51.074;-1.796;2024-02-15T14:48:54;9.93;;;2.10;;